Prairie Du Chien, Wisconsin
Current Conditions -  °F | °C
As of 3:55 AM on Saturday 29 Nov 2014 (Local Time) from KPDC Reporting Station
Haze Haze  
Wind Chill: 21°   Ceiling: Unl
Heat Index: 28°   Visibility: 5mi
Dew Point: 26°   Wind: 6mph
Humidity: 92%   Direction: 100°E
Pressure: 29.64"   Gusts: NA
Location:  43.05°N, 91.14°W
Report Text: KPDC 290955Z AUTO 10005KT 5SM BR CLR M02/M03 A2964 RMK AO2 T10241035
Loading
Personal Weather Stations






























Interactive Weather Map New forecast layout! Learn more

10-Day Weather Forecast

Advertisements
Track Severe Weather on mobile